Terminal Aerodrome Forecast
Issued by NWS Bismarck, ND

Home | Current Version | Previous Version | Text Only | Print | Product List | Glossary Off
Versions: 1 2 3 4 5 6 7 8 9 10 11 12 13

000
FTUS43 KBIS 220600 AAA
TAFBIS
TAF AMD
KBIS 220628Z 2206/2306 16015KT P6SM VCTS SCT090CB BKN120
     FM220900 19009KT P6SM VCSH BKN090
     FM221200 29009KT P6SM BKN090
     FM222000 28014KT P6SM SCT090 SCT150
     FM230000 26006KT P6SM SKC=

USA.gov is the U.S. government's official web portal to all federal, state and local government web resources and services.